Aviation Digital Data Service (ADDS)

Output produced by METARs form (1038 UTC 18 June 2019)
found at http://www.aviationweather.gov/metar/data/
 
METAR text: FYWH 181000Z 07008KT CAVOK 18/M00 Q1032 NOSIG
Conditions at: FYWH (J. G. STRIJDOM , NA) observed 1000 UTC 18 June 2019
Temperature: 18.0°C (64°F)
Dewpoint: 0.0°C (32°F) [RH = 30%]
Pressure (altimeter): 30.47 inches Hg (1032.0 mb)
Winds: from the ENE (70 degrees) at 9 MPH (8 knots; 4.1 m/s)
Visibility: 6 or more miles (10+ km)
Ceiling: ceiling and visibility are OK
Clouds: unknown
Weather: no significant weather observed at this time

METAR text: FYWH 180900Z 00000KT CAVOK 17/M00 Q1033 NOSIG
Conditions at: FYWH (J. G. STRIJDOM , NA) observed 0900 UTC 18 June 2019
Temperature: 17.0°C (63°F)
Dewpoint: 0.0°C (32°F) [RH = 32%]
Pressure (altimeter): 30.50 inches Hg (1033.0 mb)
Winds: calm
Visibility: 6 or more miles (10+ km)
Ceiling: ceiling and visibility are OK
Clouds: unknown
Weather: no significant weather observed at this time

METAR text: FYWH 180800Z 00000KT CAVOK 15/M00 Q1032 NOSIG
Conditions at: FYWH (J. G. STRIJDOM , NA) observed 0800 UTC 18 June 2019
Temperature: 15.0°C (59°F)
Dewpoint: 0.0°C (32°F) [RH = 36%]
Pressure (altimeter): 30.47 inches Hg (1032.0 mb)
Winds: calm
Visibility: 6 or more miles (10+ km)
Ceiling: ceiling and visibility are OK
Clouds: unknown
Weather: no significant weather observed at this time

METAR text: FYWH 180700Z 00000KT CAVOK 11/M00 Q1031 NOSIG
Conditions at: FYWH (J. G. STRIJDOM , NA) observed 0700 UTC 18 June 2019
Temperature: 11.0°C (52°F)
Dewpoint: 0.0°C (32°F) [RH = 47%]
Pressure (altimeter): 30.44 inches Hg (1031.0 mb)
Winds: calm
Visibility: 6 or more miles (10+ km)
Ceiling: ceiling and visibility are OK
Clouds: unknown
Weather: no significant weather observed at this time

METAR text: FYWH 180600Z 00000KT CAVOK 04/M01 Q1031 NOSIG
Conditions at: FYWH (J. G. STRIJDOM , NA) observed 0600 UTC 18 June 2019
Temperature: 4.0°C (39°F)
Dewpoint: -1.0°C (30°F) [RH = 70%]
Pressure (altimeter): 30.44 inches Hg (1031.0 mb)
Winds: calm
Visibility: 6 or more miles (10+ km)
Ceiling: ceiling and visibility are OK
Clouds: unknown
Weather: no significant weather observed at this time

METAR text: FYWH 180500Z 24004KT CAVOK 04/M01 Q1030 NOSIG
Conditions at: FYWH (J. G. STRIJDOM , NA) observed 0500 UTC 18 June 2019
Temperature: 4.0°C (39°F)
Dewpoint: -1.0°C (30°F) [RH = 70%]
Pressure (altimeter): 30.41 inches Hg (1030.0 mb)
Winds: from the WSW (240 degrees) at 5 MPH (4 knots; 2.1 m/s)
Visibility: 6 or more miles (10+ km)
Ceiling: ceiling and visibility are OK
Clouds: unknown
Weather: no significant weather observed at this time

METAR text: FYWH 180400Z 26003KT CAVOK 04/M01 Q1030 NOSIG
Conditions at: FYWH (J. G. STRIJDOM , NA) observed 0400 UTC 18 June 2019
Temperature: 4.0°C (39°F)
Dewpoint: -1.0°C (30°F) [RH = 70%]
Pressure (altimeter): 30.41 inches Hg (1030.0 mb)
Winds: from the W (260 degrees) at 3 MPH (3 knots; 1.5 m/s)
Visibility: 6 or more miles (10+ km)
Ceiling: ceiling and visibility are OK
Clouds: unknown
Weather: no significant weather observed at this time

METAR text: FYWH 180300Z 26003KT CAVOK 04/M02 Q1029 NOSIG
Conditions at: FYWH (J. G. STRIJDOM , NA) observed 0300 UTC 18 June 2019
Temperature: 4.0°C (39°F)
Dewpoint: -2.0°C (28°F) [RH = 65%]
Pressure (altimeter): 30.38 inches Hg (1029.0 mb)
Winds: from the W (260 degrees) at 3 MPH (3 knots; 1.5 m/s)
Visibility: 6 or more miles (10+ km)
Ceiling: ceiling and visibility are OK
Clouds: unknown
Weather: no significant weather observed at this time

METAR text: FYWH 180200Z 00000KT CAVOK 05/M02 Q1029 NOSIG
Conditions at: FYWH (J. G. STRIJDOM , NA) observed 0200 UTC 18 June 2019
Temperature: 5.0°C (41°F)
Dewpoint: -2.0°C (28°F) [RH = 60%]
Pressure (altimeter): 30.38 inches Hg (1029.0 mb)
Winds: calm
Visibility: 6 or more miles (10+ km)
Ceiling: ceiling and visibility are OK
Clouds: unknown
Weather: no significant weather observed at this time

METAR text: FYWH 180100Z 26003KT CAVOK 06/M01 Q1030 NOSIG
Conditions at: FYWH (J. G. STRIJDOM , NA) observed 0100 UTC 18 June 2019
Temperature: 6.0°C (43°F)
Dewpoint: -1.0°C (30°F) [RH = 61%]
Pressure (altimeter): 30.41 inches Hg (1030.0 mb)
Winds: from the W (260 degrees) at 3 MPH (3 knots; 1.5 m/s)
Visibility: 6 or more miles (10+ km)
Ceiling: ceiling and visibility are OK
Clouds: unknown
Weather: no significant weather observed at this time

METAR text: FYWH 180000Z 00000KT CAVOK 06/M01 Q1030 NOSIG
Conditions at: FYWH (J. G. STRIJDOM , NA) observed 0000 UTC 18 June 2019
Temperature: 6.0°C (43°F)
Dewpoint: -1.0°C (30°F) [RH = 61%]
Pressure (altimeter): 30.41 inches Hg (1030.0 mb)
Winds: calm
Visibility: 6 or more miles (10+ km)
Ceiling: ceiling and visibility are OK
Clouds: unknown
Weather: no significant weather observed at this time

METAR text: FYWH 172300Z 25003KT CAVOK 07/M02 Q1030 NOSIG
Conditions at: FYWH (J. G. STRIJDOM , NA) observed 2300 UTC 17 June 2019
Temperature: 7.0°C (45°F)
Dewpoint: -2.0°C (28°F) [RH = 53%]
Pressure (altimeter): 30.41 inches Hg (1030.0 mb)
Winds: from the WSW (250 degrees) at 3 MPH (3 knots; 1.5 m/s)
Visibility: 6 or more miles (10+ km)
Ceiling: ceiling and visibility are OK
Clouds: unknown
Weather: no significant weather observed at this time

METAR text: FYWH 172200Z 26004KT CAVOK 07/M02 Q1031 NOSIG
Conditions at: FYWH (J. G. STRIJDOM , NA) observed 2200 UTC 17 June 2019
Temperature: 7.0°C (45°F)
Dewpoint: -2.0°C (28°F) [RH = 53%]
Pressure (altimeter): 30.44 inches Hg (1031.0 mb)
Winds: from the W (260 degrees) at 5 MPH (4 knots; 2.1 m/s)
Visibility: 6 or more miles (10+ km)
Ceiling: ceiling and visibility are OK
Clouds: unknown
Weather: no significant weather observed at this time

METAR text: FYWH 172100Z 25003KT CAVOK 08/M02 Q1031 NOSIG
Conditions at: FYWH (J. G. STRIJDOM , NA) observed 2100 UTC 17 June 2019
Temperature: 8.0°C (46°F)
Dewpoint: -2.0°C (28°F) [RH = 49%]
Pressure (altimeter): 30.44 inches Hg (1031.0 mb)
Winds: from the WSW (250 degrees) at 3 MPH (3 knots; 1.5 m/s)
Visibility: 6 or more miles (10+ km)
Ceiling: ceiling and visibility are OK
Clouds: unknown
Weather: no significant weather observed at this time

METAR text: FYWH 172000Z 23003KT CAVOK 10/M01 Q1030 NOSIG
Conditions at: FYWH (J. G. STRIJDOM , NA) observed 2000 UTC 17 June 2019
Temperature: 10.0°C (50°F)
Dewpoint: -1.0°C (30°F) [RH = 46%]
Pressure (altimeter): 30.41 inches Hg (1030.0 mb)
Winds: from the SW (230 degrees) at 3 MPH (3 knots; 1.5 m/s)
Visibility: 6 or more miles (10+ km)
Ceiling: ceiling and visibility are OK
Clouds: unknown
Weather: no significant weather observed at this time

METAR text: FYWH 171900Z 00000KT CAVOK 11/M01 Q1029 NOSIG
Conditions at: FYWH (J. G. STRIJDOM , NA) observed 1900 UTC 17 June 2019
Temperature: 11.0°C (52°F)
Dewpoint: -1.0°C (30°F) [RH = 43%]
Pressure (altimeter): 30.38 inches Hg (1029.0 mb)
Winds: calm
Visibility: 6 or more miles (10+ km)
Ceiling: ceiling and visibility are OK
Clouds: unknown
Weather: no significant weather observed at this time

METAR text: FYWH 171800Z 12003KT CAVOK 13/M01 Q1029 NOSIG
Conditions at: FYWH (J. G. STRIJDOM , NA) observed 1800 UTC 17 June 2019
Temperature: 13.0°C (55°F)
Dewpoint: -1.0°C (30°F) [RH = 38%]
Pressure (altimeter): 30.38 inches Hg (1029.0 mb)
Winds: from the ESE (120 degrees) at 3 MPH (3 knots; 1.5 m/s)
Visibility: 6 or more miles (10+ km)
Ceiling: ceiling and visibility are OK
Clouds: unknown
Weather: no significant weather observed at this time

METAR text: FYWH 171700Z 00000KT CAVOK 16/M01 Q1029 NOSIG
Conditions at: FYWH (J. G. STRIJDOM , NA) observed 1700 UTC 17 June 2019
Temperature: 16.0°C (61°F)
Dewpoint: -1.0°C (30°F) [RH = 31%]
Pressure (altimeter): 30.38 inches Hg (1029.0 mb)
Winds: calm
Visibility: 6 or more miles (10+ km)
Ceiling: ceiling and visibility are OK
Clouds: unknown
Weather: no significant weather observed at this time

METAR text: FYWH 171600Z 07005KT CAVOK 20/M00 Q1028 NOSIG
Conditions at: FYWH (J. G. STRIJDOM , NA) observed 1600 UTC 17 June 2019
Temperature: 20.0°C (68°F)
Dewpoint: 0.0°C (32°F) [RH = 26%]
Pressure (altimeter): 30.35 inches Hg (1028.0 mb)
Winds: from the ENE (70 degrees) at 6 MPH (5 knots; 2.6 m/s)
Visibility: 6 or more miles (10+ km)
Ceiling: ceiling and visibility are OK
Clouds: unknown
Weather: no significant weather observed at this time

METAR text: FYWH 171500Z 00000KT CAVOK 21/M01 Q1028 NOSIG
Conditions at: FYWH (J. G. STRIJDOM , NA) observed 1500 UTC 17 June 2019
Temperature: 21.0°C (70°F)
Dewpoint: -1.0°C (30°F) [RH = 23%]
Pressure (altimeter): 30.35 inches Hg (1028.0 mb)
Winds: calm
Visibility: 6 or more miles (10+ km)
Ceiling: ceiling and visibility are OK
Clouds: unknown
Weather: no significant weather observed at this time

METAR text: FYWH 171400Z 05005KT CAVOK 21/M00 Q1028 NOSIG
Conditions at: FYWH (J. G. STRIJDOM , NA) observed 1400 UTC 17 June 2019
Temperature: 21.0°C (70°F)
Dewpoint: 0.0°C (32°F) [RH = 25%]
Pressure (altimeter): 30.35 inches Hg (1028.0 mb)
Winds: from the NE (50 degrees) at 6 MPH (5 knots; 2.6 m/s)
Visibility: 6 or more miles (10+ km)
Ceiling: ceiling and visibility are OK
Clouds: unknown
Weather: no significant weather observed at this time

METAR text: FYWH 171300Z 00000KT CAVOK 21/M00 Q1028 NOSIG
Conditions at: FYWH (J. G. STRIJDOM , NA) observed 1300 UTC 17 June 2019
Temperature: 21.0°C (70°F)
Dewpoint: 0.0°C (32°F) [RH = 25%]
Pressure (altimeter): 30.35 inches Hg (1028.0 mb)
Winds: calm
Visibility: 6 or more miles (10+ km)
Ceiling: ceiling and visibility are OK
Clouds: unknown
Weather: no significant weather observed at this time

METAR text: FYWH 171200Z 0907KT CAVOK 20/M01 Q1029 NOSIG
Conditions at: FYWH (J. G. STRIJDOM , NA) observed 1200 UTC 17 June 2019
Temperature: 20.0°C (68°F)
Dewpoint: -1.0°C (30°F) [RH = 24%]
Pressure (altimeter): 30.38 inches Hg (1029.0 mb)
Winds: missing
Visibility: 6 or more miles (10+ km)
Ceiling: ceiling and visibility are OK
Clouds: unknown
Weather: no significant weather observed at this time

METAR text: FYWH 171100Z 04007KT 340V070 CAVOK 19/M01 Q1030 NOSIG
Conditions at: FYWH (J. G. STRIJDOM , NA) observed 1100 UTC 17 June 2019
Temperature: 19.0°C (66°F)
Dewpoint: -1.0°C (30°F) [RH = 26%]
Pressure (altimeter): 30.41 inches Hg (1030.0 mb)
Winds: from the NE (40 degrees) at 8 MPH (7 knots; 3.6 m/s)
Visibility: 6 or more miles (10+ km)
Ceiling: ceiling and visibility are OK
Clouds: unknown
Weather: no significant weather observed at this time

METAR text: FYWH 171000Z 02010KT 340V090 CAVOK 19/M01 Q1030 NOSIG
Conditions at: FYWH (J. G. STRIJDOM , NA) observed 1000 UTC 17 June 2019
Temperature: 19.0°C (66°F)
Dewpoint: -1.0°C (30°F) [RH = 26%]
Pressure (altimeter): 30.41 inches Hg (1030.0 mb)
Winds: from the NNE (20 degrees) at 12 MPH (10 knots; 5.1 m/s)
Visibility: 6 or more miles (10+ km)
Ceiling: ceiling and visibility are OK
Clouds: unknown
Weather: no significant weather observed at this time

METAR text: FYWH 170900Z 04005KT 340V090 CAVOK 18/M00 Q1030 NOSIG
Conditions at: FYWH (J. G. STRIJDOM , NA) observed 0900 UTC 17 June 2019
Temperature: 18.0°C (64°F)
Dewpoint: 0.0°C (32°F) [RH = 30%]
Pressure (altimeter): 30.41 inches Hg (1030.0 mb)
Winds: from the NE (40 degrees) at 6 MPH (5 knots; 2.6 m/s)
Visibility: 6 or more miles (10+ km)
Ceiling: ceiling and visibility are OK
Clouds: unknown
Weather: no significant weather observed at this time

METAR text: FYWH 170800Z 32004KT 280V350 CAVOK 15/M00 Q1030 NOSIG
Conditions at: FYWH (J. G. STRIJDOM , NA) observed 0800 UTC 17 June 2019
Temperature: 15.0°C (59°F)
Dewpoint: 0.0°C (32°F) [RH = 36%]
Pressure (altimeter): 30.41 inches Hg (1030.0 mb)
Winds: from the NW (320 degrees) at 5 MPH (4 knots; 2.1 m/s)
Visibility: 6 or more miles (10+ km)
Ceiling: ceiling and visibility are OK
Clouds: unknown
Weather: no significant weather observed at this time

METAR text: FYWH 170700Z 00000KT CAVOK 11/M01 Q1030 NOSIG
Conditions at: FYWH (J. G. STRIJDOM , NA) observed 0700 UTC 17 June 2019
Temperature: 11.0°C (52°F)
Dewpoint: -1.0°C (30°F) [RH = 43%]
Pressure (altimeter): 30.41 inches Hg (1030.0 mb)
Winds: calm
Visibility: 6 or more miles (10+ km)
Ceiling: ceiling and visibility are OK
Clouds: unknown
Weather: no significant weather observed at this time

METAR text: FYWH 170600Z 24005KT CAVOK 05/M02 Q1028 NOSIG
Conditions at: FYWH (J. G. STRIJDOM , NA) observed 0600 UTC 17 June 2019
Temperature: 5.0°C (41°F)
Dewpoint: -2.0°C (28°F) [RH = 60%]
Pressure (altimeter): 30.35 inches Hg (1028.0 mb)
Winds: from the WSW (240 degrees) at 6 MPH (5 knots; 2.6 m/s)
Visibility: 6 or more miles (10+ km)
Ceiling: ceiling and visibility are OK
Clouds: unknown
Weather: no significant weather observed at this time

METAR text: FYWH 170500Z 25005KT CAVOK 04/M03 Q1028 NOSIG
Conditions at: FYWH (J. G. STRIJDOM , NA) observed 0500 UTC 17 June 2019
Temperature: 4.0°C (39°F)
Dewpoint: -3.0°C (27°F) [RH = 60%]
Pressure (altimeter): 30.35 inches Hg (1028.0 mb)
Winds: from the WSW (250 degrees) at 6 MPH (5 knots; 2.6 m/s)
Visibility: 6 or more miles (10+ km)
Ceiling: ceiling and visibility are OK
Clouds: unknown
Weather: no significant weather observed at this time

METAR text: FYWH 170400Z VRB03KT CAVOK 04/M03 Q1028 NOSIG
Conditions at: FYWH (J. G. STRIJDOM , NA) observed 0400 UTC 17 June 2019
Temperature: 4.0°C (39°F)
Dewpoint: -3.0°C (27°F) [RH = 60%]
Pressure (altimeter): 30.35 inches Hg (1028.0 mb)
Winds: variable direction winds at 3 MPH (3 knots; 1.5 m/s)
Visibility: 6 or more miles (10+ km)
Ceiling: ceiling and visibility are OK
Clouds: unknown
Weather: no significant weather observed at this time

METAR text: FYWH 170300Z 27004KT CAVOK 04/M03 Q1028 NOSIG
Conditions at: FYWH (J. G. STRIJDOM , NA) observed 0300 UTC 17 June 2019
Temperature: 4.0°C (39°F)
Dewpoint: -3.0°C (27°F) [RH = 60%]
Pressure (altimeter): 30.35 inches Hg (1028.0 mb)
Winds: from the W (270 degrees) at 5 MPH (4 knots; 2.1 m/s)
Visibility: 6 or more miles (10+ km)
Ceiling: ceiling and visibility are OK
Clouds: unknown
Weather: no significant weather observed at this time

METAR text: FYWH 170200Z VRB03KT CAVOK 04/M03 Q1028 NOSIG
Conditions at: FYWH (J. G. STRIJDOM , NA) observed 0200 UTC 17 June 2019
Temperature: 4.0°C (39°F)
Dewpoint: -3.0°C (27°F) [RH = 60%]
Pressure (altimeter): 30.35 inches Hg (1028.0 mb)
Winds: variable direction winds at 3 MPH (3 knots; 1.5 m/s)
Visibility: 6 or more miles (10+ km)
Ceiling: ceiling and visibility are OK
Clouds: unknown
Weather: no significant weather observed at this time

METAR text: FYWH 170100Z VRB03KT CAVOK 04/M03 Q1028 NOSIG
Conditions at: FYWH (J. G. STRIJDOM , NA) observed 0100 UTC 17 June 2019
Temperature: 4.0°C (39°F)
Dewpoint: -3.0°C (27°F) [RH = 60%]
Pressure (altimeter): 30.35 inches Hg (1028.0 mb)
Winds: variable direction winds at 3 MPH (3 knots; 1.5 m/s)
Visibility: 6 or more miles (10+ km)
Ceiling: ceiling and visibility are OK
Clouds: unknown
Weather: no significant weather observed at this time

METAR text: FYWH 162300Z 24005KT CAVOK 05/M04 Q1028 NOSIG
Conditions at: FYWH (J. G. STRIJDOM , NA) observed 2300 UTC 16 June 2019
Temperature: 5.0°C (41°F)
Dewpoint: -4.0°C (25°F) [RH = 52%]
Pressure (altimeter): 30.35 inches Hg (1028.0 mb)
Winds: from the WSW (240 degrees) at 6 MPH (5 knots; 2.6 m/s)
Visibility: 6 or more miles (10+ km)
Ceiling: ceiling and visibility are OK
Clouds: unknown
Weather: no significant weather observed at this time

Forecast for: FYWH (J. G. STRIJDOM , NA)
Text: TAF FYWH 181000Z 1812/1912 07008KT CAVOK
Forecast period: 1200 to 1800 UTC 18 June 2019
Forecast type: FROM: standard forecast or significant change
Winds: from the ENE (70 degrees) at 9 MPH (8 knots; 4.1 m/s)
Visibility: 6 or more miles 10+ km)
Ceiling: unknown
Clouds: missing
Weather: NSW  (no significant weather)
Text: BECMG 1818/1820 28006KT
Forecast period: 1800 UTC 18 June 2019 to 1200 UTC 19 June 2019
Forecast type: BECOMING: Conditions expected to become as follows by 2000 UTC 18 June 2019
Winds: from the W (280 degrees) at 7 MPH (6 knots; 3.1 m/s)
Visibility: 6 or more miles 10+ km)
Ceiling: unknown
Clouds: missing
Weather: NSW  (no significant weather)